This is the latest recevied weather packets stored in our database for station/object K1BES. If no packets are shown the sender has not sent any weather packets the latest 10 day(s).
| Time | Temp. | Humidity | Pressure | Rain* | Wind** | Luminosity | Snow |
|---|---|---|---|---|---|---|---|
| 1787846677 | 28.33° C | 79% | 1020.2 hPa | 0 mm | - | 105 W/m² | - |
| 1787846372 | 29.44° C | 73% | 1020 hPa | 0 mm | - | 101 W/m² | - |
| 1787846068 | 31.11° C | 68% | 1019.8 hPa | 0 mm | - | 75 W/m² | - |
| 1787845764 | 32.22° C | 72% | 1020 hPa | 0 mm | - | 93 W/m² | - |
| 1787845459 | 33.33° C | 68% | 1019.5 hPa | 0 mm | - | 96 W/m² | - |
| 1787845155 | 34.44° C | 64% | 1019.6 hPa | 0 mm | - | 318 W/m² | - |
| 1787844850 | 34.44° C | 65% | 1019.7 hPa | 0 mm | - | 857 W/m² | - |
| 1787844549 | 34.44° C | 63% | 1019.9 hPa | 0 mm | - | 841 W/m² | - |
| 1787844244 | 34.44° C | 63% | 1019.8 hPa | 0 mm | - | 819 W/m² | - |
| 1787843943 | 34.44° C | 62% | 1019.9 hPa | 0 mm | - | 799 W/m² | - |
| 1787843638 | 35° C | 62% | 1019.5 hPa | 0 mm | - | 788 W/m² | - |
| 1787843335 | 34.44° C | 63% | 1019.4 hPa | 0 mm | - | 765 W/m² | - |
| 1787843030 | 34.44° C | 63% | 1019.4 hPa | 0 mm | - | 756 W/m² | - |
| 1787842730 | 34.44° C | 62% | 1019.4 hPa | 0 mm | - | 734 W/m² | - |
| 1787842425 | 33.89° C | 64% | 1019.3 hPa | 0 mm | - | 712 W/m² | - |
| 1787842125 | 33.89° C | 64% | 1019 hPa | 0 mm | - | 688 W/m² | - |
| 1787841820 | 34.44° C | 63% | 1019.1 hPa | 0 mm | - | 665 W/m² | - |
| 1787841516 | 33.89° C | 62% | 1019 hPa | 0 mm | - | 650 W/m² | - |
| 1787841215 | 33.33° C | 65% | 1019.1 hPa | 0 mm | - | 630 W/m² | - |
| 1787840910 | 33.33° C | 67% | 1019.1 hPa | 0 mm | - | 611 W/m² | - |
| 1787840605 | 33.33° C | 65% | 1019.1 hPa | 0 mm | - | 593 W/m² | - |
| 1787840300 | 32.78° C | 67% | 1019.1 hPa | 0 mm | - | 574 W/m² | - |
| 1787840001 | 32.78° C | 67% | 1019 hPa | 0 mm | - | 564 W/m² | - |
| 1787839700 | 32.78° C | 66% | 1019 hPa | 0 mm | - | 541 W/m² | - |
| 1787839395 | 32.78° C | 68% | 1018.9 hPa | 0 mm | - | 512 W/m² | - |
* Rain latest hour (hover to see other rain measurements)
** Current wind speed in m/s (hover to see current wind gust speed)